Time;durP1;ratioP1;P1;durP2;ratioP2;P2;SDS_P1;SDS_P2;PMS_P1;PMS_P2;Temp;Humidity;BMP_temperature;BMP_pressure;BME280_temperature;BME280_humidity;BME280_pressure;Samples;Min_cycle;Max_cycle;Signal;HPM_P1;HPM_P2
2022/07/26 00:00:27;;;;;;;15.80;13.50;;;;;;;21.83;100.00;63136.41;5090848;28;20520;-76
2022/07/26 00:02:54;;;;;;;15.27;12.63;;;;;;;20.89;100.00;63040.88;5089905;28;21058;-74
2022/07/26 00:05:23;;;;;;;20.50;13.60;;;;;;;21.89;100.00;63142.91;5091768;28;20617;-75
2022/07/26 00:07:50;;;;;;;17.67;12.63;;;;;;;21.84;100.00;63142.66;5090853;28;20216;-75
2022/07/26 00:10:38;;;;;;;16.63;11.80;;;;;;;21.93;100.00;63147.22;5072708;28;20192;-76
2022/07/26 00:13:06;;;;;;;13.90;11.80;;;;;;;21.88;100.00;63146.44;5092262;28;20204;-74
2022/07/26 00:15:33;;;;;;;22.57;14.77;;;;;;;21.82;100.00;63141.03;5088685;28;20304;-75
2022/07/26 00:18:02;;;;;;;25.03;17.60;;;;;;;21.73;100.00;63128.13;5089617;28;20196;-76
2022/07/26 00:20:29;;;;;;;28.17;19.13;;;;;;;21.89;100.00;63144.94;5071563;28;20227;-75
2022/07/26 00:22:57;;;;;;;25.47;19.03;;;;;;;21.61;100.00;63117.75;5071655;28;20208;-74
2022/07/26 00:25:24;;;;;;;27.23;20.50;;;;;;;21.74;100.00;63131.81;5071719;28;20227;-75
2022/07/26 00:27:54;;;;;;;28.73;20.57;;;;;;;21.66;100.00;63117.97;5075619;28;20234;-75
2022/07/26 00:30:21;;;;;;;29.37;21.27;;;;;;;21.08;100.00;63060.38;5091761;28;20676;-77
2022/07/26 00:32:48;;;;;;;17.93;12.90;;;;;;;21.55;100.00;63111.25;5090067;28;20191;-76
2022/07/26 00:35:16;;;;;;;14.33;12.40;;;;;;;22.22;100.00;63178.06;5079241;28;20200;-76
2022/07/26 00:37:44;;;;;;;14.43;11.73;;;;;;;22.06;100.00;63165.94;5077859;28;20283;-77
2022/07/26 00:40:12;;;;;;;13.33;11.60;;;;;;;21.99;100.00;63158.38;5078263;28;20595;-76
2022/07/26 00:42:40;;;;;;;14.83;10.97;;;;;;;22.09;100.00;63164.56;5071152;28;20279;-76
2022/07/26 00:45:15;;;;;;;16.43;11.47;;;;;;;21.12;100.00;63069.88;5073090;28;20253;-75
2022/07/26 00:47:43;;;;;;;15.60;11.13;;;;;;;21.35;100.00;63084.41;5071003;28;20273;-77
2022/07/26 00:50:13;;;;;;;14.87;12.27;;;;;;;21.80;100.00;63133.13;5083009;28;20218;-75
2022/07/26 00:52:44;;;;;;;17.53;12.87;;;;;;;21.71;100.00;63129.09;5075413;28;20196;-74
2022/07/26 00:55:14;;;;;;;13.50;12.10;;;;;;;21.70;100.00;63127.47;5074637;28;20199;-74
2022/07/26 00:57:41;;;;;;;18.63;11.70;;;;;;;21.61;100.00;63112.56;5081404;28;20200;-76
2022/07/26 01:00:14;;;;;;;16.93;11.80;;;;;;;21.55;100.00;63106.06;5090001;28;20196;-77
2022/07/26 01:02:42;;;;;;;12.83;11.50;;;;;;;21.52;100.00;63102.81;5075236;28;20192;-75
2022/07/26 01:05:10;;;;;;;15.07;11.73;;;;;;;21.18;100.00;63066.53;5094874;28;20286;-74
2022/07/26 01:07:39;;;;;;;13.97;12.07;;;;;;;21.51;100.00;63101.72;5094437;28;20227;-75
2022/07/26 01:10:11;;;;;;;14.10;11.93;;;;;;;21.42;100.00;63091.97;5094574;28;20191;-76
2022/07/26 01:12:38;;;;;;;13.83;12.43;;;;;;;21.34;100.00;63088.50;5093657;28;20208;-76
2022/07/26 01:15:06;;;;;;;16.33;11.93;;;;;;;21.51;100.00;63101.72;5094705;28;20207;-76
2022/07/26 01:17:37;;;;;;;15.53;12.10;;;;;;;21.34;100.00;63085.91;5094040;28;20195;-75
2022/07/26 01:20:07;;;;;;;15.87;11.23;;;;;;;21.44;100.00;63094.69;5094624;27;20205;-77
2022/07/26 01:22:36;;;;;;;13.70;11.90;;;;;;;21.29;100.00;63078.44;5093948;28;20655;-76
2022/07/26 01:25:06;;;;;;;16.43;12.00;;;;;;;20.39;100.00;62984.19;5094295;28;20650;-76
2022/07/26 01:27:38;;;;;;;15.07;12.77;;;;;;;21.26;100.00;63075.22;5092996;28;20238;-74
2022/07/26 01:30:12;;;;;;;15.33;12.43;;;;;;;20.28;100.00;62980.06;5093816;28;20227;-76
2022/07/26 01:32:40;;;;;;;13.93;11.70;;;;;;;20.57;100.00;63003.09;5068480;28;20282;-75
2022/07/26 01:35:07;;;;;;;13.87;12.50;;;;;;;21.03;100.00;63052.91;5092055;28;20203;-77
2022/07/26 01:37:37;;;;;;;15.43;11.93;;;;;;;21.28;100.00;63082.00;5081135;28;20646;-74
2022/07/26 01:40:06;;;;;;;14.03;12.63;;;;;;;21.22;100.00;63072.91;5094112;28;20282;-75
2022/07/26 01:42:34;;;;;;;16.00;12.57;;;;;;;20.99;100.00;63048.53;5093616;28;20202;-78
2022/07/26 01:45:01;;;;;;;16.50;12.67;;;;;;;20.94;100.00;63046.28;5093480;28;20278;-74
2022/07/26 01:47:28;;;;;;;14.40;12.47;;;;;;;20.89;100.00;63040.88;5093560;28;20615;-75
2022/07/26 01:49:55;;;;;;;14.53;13.03;;;;;;;20.82;100.00;63028.13;5091463;28;20257;-76
2022/07/26 01:52:22;;;;;;;17.83;12.00;;;;;;;19.95;100.00;62934.00;5093694;28;20203;-76
2022/07/26 01:54:51;;;;;;;15.40;13.43;;;;;;;20.82;100.00;63025.53;5093653;28;20203;-75
2022/07/26 01:57:18;;;;;;;18.43;13.40;;;;;;;20.77;100.00;63022.69;5084577;28;20208;-76
2022/07/26 01:59:45;;;;;;;14.60;13.10;;;;;;;19.74;100.00;62916.50;5073957;28;20261;-75
2022/07/26 02:02:13;;;;;;;16.03;12.07;;;;;;;19.86;100.00;62924.81;5072668;28;20666;-75
2022/07/26 02:04:59;;;;;;;15.77;12.93;;;;;;;20.67;100.00;63011.34;5074548;28;20188;-76
2022/07/26 02:07:28;;;;;;;15.77;13.40;;;;;;;19.62;100.00;62904.03;5074246;28;20228;-75
2022/07/26 02:09:58;;;;;;;16.90;13.17;;;;;;;20.58;100.00;63002.16;5073366;28;20211;-75
2022/07/26 02:12:25;;;;;;;17.17;12.80;;;;;;;20.78;100.00;63026.38;5073848;28;20201;-75
2022/07/26 02:14:52;;;;;;;14.50;13.00;;;;;;;20.91;100.00;63037.84;5080426;28;20207;-75
2022/07/26 02:17:19;;;;;;;15.13;12.50;;;;;;;20.94;100.00;63046.28;5079476;28;20200;-76
2022/07/26 02:19:47;;;;;;;14.20;12.30;;;;;;;20.80;100.00;63028.53;5073904;28;20200;-76
2022/07/26 02:22:14;;;;;;;15.07;13.47;;;;;;;20.47;100.00;62990.25;5073775;28;20192;-75
2022/07/26 02:24:41;;;;;;;14.77;13.27;;;;;;;20.79;100.00;63027.47;5076365;28;20192;-74
2022/07/26 02:27:10;;;;;;;14.27;12.77;;;;;;;20.81;100.00;63029.06;5084039;28;20233;-76
2022/07/26 02:29:37;;;;;;;20.77;13.77;;;;;;;20.90;100.00;63036.78;5093500;27;20566;-76
2022/07/26 02:32:05;;;;;;;17.37;13.10;;;;;;;20.89;100.00;63040.88;5073610;28;20612;-78
2022/07/26 02:34:32;;;;;;;14.93;12.63;;;;;;;20.60;100.00;63004.31;5072921;28;20659;-76
2022/07/26 02:37:00;;;;;;;18.00;13.53;;;;;;;19.83;100.00;62921.03;5073087;28;20266;-77
2022/07/26 02:39:27;;;;;;;14.70;13.20;;;;;;;20.60;100.00;63009.50;5082101;28;20206;-76
2022/07/26 02:41:55;;;;;;;18.43;13.30;;;;;;;20.86;100.00;63034.50;5092467;28;20246;-73
2022/07/26 02:44:25;;;;;;;15.37;12.87;;;;;;;20.43;100.00;62988.50;5093054;28;20658;-76
2022/07/26 02:46:52;;;;;;;17.90;13.67;;;;;;;20.84;100.00;63029.75;5079005;28;20257;-74
2022/07/26 02:49:20;;;;;;;17.27;13.13;;;;;;;20.91;100.00;63037.84;5092703;28;20654;-75
2022/07/26 02:51:49;;;;;;;14.60;12.27;;;;;;;20.86;100.00;63035.03;5091688;28;20192;-75
2022/07/26 02:54:16;;;;;;;15.63;13.10;;;;;;;20.89;100.00;63040.88;5092777;28;20246;-76
2022/07/26 02:56:46;;;;;;;16.63;12.93;;;;;;;20.00;100.00;62944.59;5083241;28;20213;-76
2022/07/26 02:59:15;;;;;;;15.13;13.50;;;;;;;20.99;100.00;63043.91;5089492;28;20204;-76
2022/07/26 03:01:44;;;;;;;14.73;13.23;;;;;;;20.93;100.00;63045.19;5074169;28;20618;-76
2022/07/26 03:04:13;;;;;;;16.17;13.50;;;;;;;20.98;100.00;63045.44;5072604;28;20196;-75
2022/07/26 03:06:41;;;;;;;16.80;12.60;;;;;;;21.00;100.00;63050.19;5072602;28;20647;-74
2022/07/26 03:09:09;;;;;;;17.27;13.70;;;;;;;21.03;100.00;63050.31;5072413;28;20232;-75
2022/07/26 03:11:36;;;;;;;18.63;13.80;;;;;;;20.92;100.00;63044.13;5073279;28;20192;-76
2022/07/26 03:14:03;;;;;;;16.77;13.57;;;;;;;20.86;100.00;63032.44;5072630;28;20200;-75
2022/07/26 03:16:31;;;;;;;22.37;14.33;;;;;;;20.17;100.00;62955.19;5072674;28;20198;-74
2022/07/26 03:19:00;;;;;;;16.80;14.43;;;;;;;20.72;100.00;63019.91;5072811;28;20207;-75
2022/07/26 03:21:27;;;;;;;19.13;13.90;;;;;;;20.82;100.00;63028.13;5072033;28;20216;-75
2022/07/26 03:23:56;;;;;;;17.20;13.33;;;;;;;20.70;100.00;63017.72;5085542;28;20264;-75
2022/07/26 03:26:34;;;;;;;15.50;13.23;;;;;;;20.81;100.00;63026.47;5085427;28;20575;-78
2022/07/26 03:29:02;;;;;;;15.83;13.47;;;;;;;20.94;100.00;63041.09;5071988;28;20242;-75
2022/07/26 03:31:29;;;;;;;17.67;14.37;;;;;;;20.92;100.00;63038.41;5072537;28;20207;-77
2022/07/26 03:33:56;;;;;;;14.07;12.47;;;;;;;20.67;100.00;63011.88;5072606;28;20207;-76
2022/07/26 03:36:29;;;;;;;16.07;12.80;;;;;;;20.85;100.00;63033.94;5072009;28;20199;-74
2022/07/26 03:38:56;;;;;;;14.63;13.03;;;;;;;20.80;100.00;63031.13;5074915;28;20203;-76
2022/07/26 03:41:24;;;;;;;23.27;13.20;;;;;;;20.79;100.00;63024.88;5092330;28;20195;-76
2022/07/26 03:43:52;;;;;;;19.47;12.80;;;;;;;20.86;100.00;63035.03;5091416;28;20199;-76
2022/07/26 03:46:20;;;;;;;19.50;13.57;;;;;;;20.94;100.00;63043.69;5092040;28;20199;-78
2022/07/26 03:48:47;;;;;;;20.90;13.97;;;;;;;21.00;100.00;63052.22;5091505;28;20223;-76
2022/07/26 03:51:14;;;;;;;25.00;13.30;;;;;;;21.09;100.00;63051.09;5091930;28;20195;-77
2022/07/26 03:53:44;;;;;;;17.93;13.57;;;;;;;20.62;100.00;63009.06;5090642;28;20206;-77
2022/07/26 03:56:30;;;;;;;17.43;13.40;;;;;;;21.06;100.00;63058.19;5091555;28;20202;-75
2022/07/26 03:58:59;;;;;;;21.63;14.70;;;;;;;21.01;100.00;63051.28;5091646;28;20199;-75
2022/07/26 04:01:28;;;;;;;15.73;13.40;;;;;;;20.97;100.00;63043.78;5091375;28;20223;-76
2022/07/26 04:03:57;;;;;;;23.90;14.33;;;;;;;21.40;100.00;63095.00;5081149;28;20204;-75
2022/07/26 04:06:26;;;;;;;19.30;13.97;;;;;;;21.69;100.00;63121.75;5072005;28;20195;-77
2022/07/26 04:08:55;;;;;;;18.47;12.70;;;;;;;21.62;100.00;63116.22;5071982;28;20220;-76
2022/07/26 04:11:22;;;;;;;15.83;13.63;;;;;;;21.22;100.00;63070.31;5072391;28;20196;-74
2022/07/26 04:13:49;;;;;;;15.53;13.13;;;;;;;21.63;100.00;63119.91;5072831;28;20200;-77
2022/07/26 04:16:17;;;;;;;19.80;13.50;;;;;;;20.89;100.00;63035.13;5071175;28;20557;-78
2022/07/26 04:18:45;;;;;;;18.43;13.60;;;;;;;20.94;100.00;63043.69;5072175;28;20196;-78
2022/07/26 04:21:13;;;;;;;21.53;15.47;;;;;;;21.63;100.00;63120.44;5071357;28;20220;-77
2022/07/26 04:23:42;;;;;;;22.73;13.30;;;;;;;21.85;100.00;63143.75;5072385;28;20203;-75
2022/07/26 04:26:12;;;;;;;22.03;14.03;;;;;;;21.74;100.00;63126.63;5073343;28;20211;-74
2022/07/26 04:28:40;;;;;;;18.43;13.90;;;;;;;21.90;100.00;63146.00;5076319;28;20232;-75
2022/07/26 04:31:09;;;;;;;19.47;13.20;;;;;;;21.80;100.00;63136.25;5076647;28;20548;-74
2022/07/26 04:33:36;;;;;;;14.80;12.67;;;;;;;22.02;100.00;63162.16;5077643;28;20196;-75
2022/07/26 04:36:04;;;;;;;22.77;13.40;;;;;;;22.03;100.00;63155.47;5076162;28;20200;-76
2022/07/26 04:38:32;;;;;;;17.50;13.83;;;;;;;21.88;100.00;63146.44;5074745;28;20666;-76
2022/07/26 04:41:00;;;;;;;21.97;13.77;;;;;;;22.16;100.00;63177.31;5083760;28;20196;-76
2022/07/26 04:43:29;;;;;;;22.57;14.47;;;;;;;22.35;100.00;63197.34;5095026;28;20207;-75
2022/07/26 04:45:59;;;;;;;20.90;14.63;;;;;;;22.45;100.00;63208.75;5094984;28;20814;-74
2022/07/26 04:48:26;;;;;;;18.43;13.77;;;;;;;22.61;100.00;63220.34;5091292;28;20228;-76
2022/07/26 04:50:55;;;;;;;18.53;13.43;;;;;;;22.76;100.00;63241.28;5075042;28;20204;-75
2022/07/26 04:53:22;;;;;;;21.23;13.60;;;;;;;22.91;100.00;63257.53;5091717;28;20260;-76
2022/07/26 04:55:49;;;;;;;20.33;13.47;;;;;;;22.87;100.00;63247.97;5084529;28;20655;-75
2022/07/26 04:58:16;;;;;;;19.00;13.23;;;;;;;22.96;100.00;63260.34;5073316;28;20666;-76
2022/07/26 05:00:47;;;;;;;20.70;13.73;;;;;;;23.04;100.00;63266.41;5075006;28;20650;-75
2022/07/26 05:03:14;;;;;;;29.67;13.13;;;;;;;23.20;100.00;63283.78;5087882;28;20274;-76
2022/07/26 05:05:41;;;;;;;18.73;14.03;;;;;;;23.26;100.00;63293.41;5073150;28;20257;-75
2022/07/26 05:08:09;;;;;;;23.77;14.87;;;;;;;23.30;100.00;63299.81;5074780;28;20579;-76
2022/07/26 05:10:38;;;;;;;24.03;12.90;;;;;;;23.26;100.00;63290.28;5074079;28;20201;-75
2022/07/26 05:13:07;;;;;;;25.20;14.13;;;;;;;23.79;100.00;63347.75;5074952;28;20581;-76
2022/07/26 05:15:35;;;;;;;24.00;13.10;;;;;;;23.85;100.00;63359.47;5075043;28;20195;-76
2022/07/26 05:18:06;;;;;;;23.13;14.63;;;;;;;23.56;100.00;63325.41;5075062;28;20197;-77
2022/07/26 05:20:35;;;;;;;23.67;16.43;;;;;;;23.77;100.00;63350.78;5074470;28;20298;-75
2022/07/26 05:23:05;;;;;;;28.17;18.87;;;;;;;23.63;100.00;63333.00;5061114;28;20208;-77
2022/07/26 05:25:34;;;;;;;30.53;20.90;;;;;;;23.95;100.00;63369.78;5076259;28;20212;-74
2022/07/26 05:28:01;;;;;;;26.70;19.10;;;;;;;24.11;100.00;63381.94;5075127;28;20619;-76
2022/07/26 05:30:29;;;;;;;24.53;17.20;;;;;;;23.89;100.00;63358.06;5075392;28;20204;-76
2022/07/26 05:32:56;;;;;;;20.80;16.30;;;;;;;23.41;100.00;63312.28;5075109;28;20190;-77
2022/07/26 05:35:27;;;;;;;26.93;15.60;;;;;;;24.20;100.00;63389.13;5075394;28;20208;-75
2022/07/26 05:37:57;;;;;;;19.20;13.93;;;;;;;24.46;100.00;63416.78;5083674;28;20227;-75
2022/07/26 05:40:24;;;;;;;19.40;14.13;;;;;;;24.87;100.00;63466.53;5093787;28;20652;-75
2022/07/26 05:42:51;;;;;;;22.70;14.17;;;;;;;24.30;100.00;63408.34;5094230;28;20632;-74
2022/07/26 05:45:18;;;;;;;20.40;14.53;;;;;;;25.43;100.00;63524.75;5092970;28;20192;-76
2022/07/26 05:47:45;;;;;;;17.70;13.40;;;;;;;25.59;100.00;63542.16;5093982;28;20196;-75
2022/07/26 05:50:13;;;;;;;18.27;14.40;;;;;;;25.59;100.00;63542.16;5092948;28;20206;-75
2022/07/26 05:52:42;;;;;;;20.70;14.00;;;;;;;25.77;100.00;63561.69;5094291;28;20212;-76
2022/07/26 05:55:11;;;;;;;21.83;14.80;;;;;;;26.04;100.00;63595.19;5092809;27;20207;-75
2022/07/26 05:57:41;;;;;;;21.63;14.23;;;;;;;26.12;100.00;63601.28;5081638;28;20196;-76
2022/07/26 06:00:09;;;;;;;20.30;13.90;;;;;;;25.78;100.00;63562.78;5092059;28;20593;-75
2022/07/26 06:02:36;;;;;;;17.83;13.90;;;;;;;25.92;100.00;63580.59;5094205;28;20551;-74
2022/07/26 06:05:04;;;;;;;17.10;13.57;;;;;;;25.91;100.00;63579.53;5092791;28;20195;-76
2022/07/26 06:07:30;;;;;;;19.27;13.80;;;;;;;26.36;100.00;63629.97;5086336;28;20192;-75
2022/07/26 06:09:59;;;;;;;15.77;12.70;;;;;;;26.28;100.00;63613.44;5081478;28;20300;-77
2022/07/26 06:12:26;;;;;;;19.67;13.83;;;;;;;26.52;100.00;63642.69;5092157;28;20629;-74
2022/07/26 06:14:53;;;;;;;19.13;13.80;;;;;;;26.59;100.00;63649.75;5073879;28;20204;-76
2022/07/26 06:17:20;;;;;;;19.43;13.70;;;;;;;26.53;100.00;63649.00;5079081;28;20203;-76
2022/07/26 06:19:48;;;;;;;15.70;13.00;;;;;;;26.86;100.00;63681.75;5093709;28;20278;-76
2022/07/26 06:22:15;;;;;;;15.80;12.27;;;;;;;27.02;100.00;63696.53;5095949;28;20714;-74
2022/07/26 06:24:43;;;;;;;14.47;11.90;;;;;;;26.18;100.00;63605.19;5095010;28;20196;-75
2022/07/26 06:27:12;;;;;;;23.40;11.57;;;;;;;27.06;100.00;63700.34;5092899;28;20196;-77
2022/07/26 06:29:40;;;;;;;14.80;11.50;;;;;;;27.06;100.00;63703.50;5092769;28;20224;-76
2022/07/26 06:32:07;;;;;;;16.70;11.23;;;;;;;27.26;100.00;63719.50;5088870;28;20202;-77
2022/07/26 06:34:35;;;;;;;18.50;11.60;;;;;;;26.73;100.00;63665.00;5083071;28;20199;-74
2022/07/26 06:37:04;;;;;;;18.03;11.73;;;;;;;27.06;100.00;63705.59;5079010;28;20196;-76
2022/07/26 06:39:31;;;;;;;12.50;10.57;;;;;;;27.43;100.00;63741.16;5093589;28;20559;-76
2022/07/26 06:42:02;;;;;;;17.17;10.87;;;;;;;27.62;100.00;63760.75;5074807;28;20211;-76
2022/07/26 06:44:34;;;;;;;14.23;11.43;;;;;;;27.86;100.00;63790.03;5073103;28;20674;-77
2022/07/26 06:47:01;;;;;;;11.93;10.70;;;;;;;27.06;100.00;63706.13;5073591;28;20274;-76
2022/07/26 06:49:28;;;;;;;15.13;11.50;;;;;;;28.05;100.00;63807.59;5072384;28;20721;-76
2022/07/26 06:51:56;;;;;;;14.93;11.23;;;;;;;27.17;100.00;63714.91;5072730;28;20204;-76
2022/07/26 06:54:24;;;;;;;19.00;11.63;;;;;;;27.34;100.00;63736.63;5072746;28;20718;-75
2022/07/26 06:56:51;;;;;;;15.43;11.50;;;;;;;28.04;100.00;63804.41;5079681;28;20706;-78
2022/07/26 06:59:19;;;;;;;16.73;11.33;;;;;;;28.07;100.00;63809.75;5078819;28;20202;-77
2022/07/26 07:01:49;;;;;;;14.33;11.57;;;;;;;28.17;100.00;63821.19;5078758;28;20562;-76
2022/07/26 07:04:17;;;;;;;13.83;12.30;;;;;;;28.20;100.00;63823.91;5092434;28;20214;-76
2022/07/26 07:06:45;;;;;;;16.70;11.80;;;;;;;27.97;100.00;63802.03;5085947;28;20196;-74
2022/07/26 07:09:12;;;;;;;12.40;11.03;;;;;;;27.66;100.00;63765.09;5085740;28;20223;-76
2022/07/26 07:11:39;;;;;;;15.80;11.63;;;;;;;28.49;100.00;63854.94;5084866;28;20193;-75
2022/07/26 07:14:06;;;;;;;17.10;11.87;;;;;;;28.64;100.00;63871.84;5072648;28;20200;-75
2022/07/26 07:16:34;;;;;;;14.93;11.30;;;;;;;28.75;100.00;63883.84;5076701;28;20195;-75
2022/07/26 07:19:02;;;;;;;14.73;12.13;;;;;;;28.87;100.00;63894.28;5092032;28;20653;-77
2022/07/26 07:21:30;;;;;;;13.17;11.87;;;;;;;29.07;100.00;63918.69;5092146;28;20268;-75
2022/07/26 07:23:56;;;;;;;14.27;11.97;;;;;;;29.29;100.00;63944.22;5091538;28;20201;-76
2022/07/26 07:26:24;;;;;;;12.50;11.27;;;;;;;29.26;100.00;63938.34;5091047;28;20208;-75
2022/07/26 07:28:51;;;;;;;14.20;12.70;;;;;;;29.06;100.00;63917.59;5091395;28;20229;-75
2022/07/26 07:31:18;;;;;;;13.70;11.00;;;;;;;29.22;100.00;63936.59;5091749;28;20212;-75
2022/07/26 07:33:45;;;;;;;15.37;12.47;;;;;;;29.61;100.00;63979.09;5090966;28;20678;-77
2022/07/26 07:36:14;;;;;;;16.63;13.83;;;;;;;29.86;100.00;63998.50;5081977;28;20294;-75
2022/07/26 07:38:44;;;;;;;17.13;12.70;;;;;;;30.14;100.00;64033.72;5074159;28;20209;-76
2022/07/26 07:41:12;;;;;;;19.43;13.53;;;;;;;30.05;100.00;64024.47;5091995;28;20536;-77
2022/07/26 07:43:39;;;;;;;16.60;13.33;;;;;;;30.07;100.00;64028.72;5074059;28;20222;-76
2022/07/26 07:46:07;;;;;;;16.10;13.17;;;;;;;29.00;100.00;63913.13;5071670;28;20244;-75
2022/07/26 07:48:36;;;;;;;16.07;13.27;;;;;;;30.09;100.00;64028.28;5088807;28;20575;-75
2022/07/26 07:51:03;;;;;;;21.80;16.10;;;;;;;30.24;100.00;64045.19;5091687;28;20199;-76
2022/07/26 07:53:32;;;;;;;26.23;14.70;;;;;;;29.78;100.00;63995.03;5073394;28;20194;-76
2022/07/26 07:55:59;;;;;;;21.63;16.17;;;;;;;29.58;100.00;63973.22;5071485;28;20205;-76
2022/07/26 07:58:26;;;;;;;27.37;16.53;;;;;;;29.69;100.00;63985.19;5091575;28;20584;-77
2022/07/26 08:00:53;;;;;;;15.20;12.33;;;;;;;28.97;100.00;63910.44;5086232;28;20193;-74
2022/07/26 08:03:20;;;;;;;16.17;11.13;;;;;;;29.38;100.00;63951.41;5071466;28;20194;-75
2022/07/26 08:05:48;;;;;;;17.17;12.03;;;;;;;30.12;100.00;64032.09;5071474;28;20232;-74
2022/07/26 08:08:15;;;;;;;25.37;12.57;;;;;;;30.58;100.00;64081.75;5081837;28;20203;-76
2022/07/26 08:10:44;;;;;;;12.20;10.87;;;;;;;31.03;100.00;64130.84;5097448;28;20222;-75
2022/07/26 08:13:11;;;;;;;18.87;12.07;;;;;;;31.25;100.00;64149.06;5095706;28;20554;-77
2022/07/26 08:15:39;;;;;;;14.00;12.50;;;;;;;31.45;100.00;64176.72;5091458;28;20677;-77
2022/07/26 08:18:06;;;;;;;17.17;12.20;;;;;;;31.44;100.00;64172.47;5090950;28;20202;-76
2022/07/26 08:20:34;;;;;;;13.00;11.57;;;;;;;31.29;100.00;64158.69;5079568;28;20223;-75
2022/07/26 08:23:01;;;;;;;17.03;12.50;;;;;;;31.13;100.00;64147.03;5071287;28;20200;-75
2022/07/26 08:25:29;;;;;;;19.33;12.50;;;;;;;31.37;100.00;64165.34;5071411;28;20207;-75
2022/07/26 08:27:58;;;;;;;18.90;12.90;;;;;;;31.67;100.00;64200.22;5070510;28;20699;-76
2022/07/26 08:30:25;;;;;;;15.37;12.97;;;;;;;31.20;100.00;64149.41;5071608;28;20285;-76
2022/07/26 08:32:53;;;;;;;14.87;12.37;;;;;;;30.60;100.00;64084.47;5071786;28;20279;-77
2022/07/26 08:35:21;;;;;;;18.20;12.93;;;;;;;31.22;100.00;64151.06;5071808;28;20200;-76
2022/07/26 08:37:48;;;;;;;17.73;12.60;;;;;;;31.67;100.00;64194.94;5071543;28;20644;-76
2022/07/26 08:40:15;;;;;;;14.93;11.40;;;;;;;31.50;100.00;64176.38;5071042;28;20682;-75
2022/07/26 08:42:49;;;;;;;16.30;12.57;;;;;;;32.30;100.00;64269.03;5071179;28;20212;-75
2022/07/26 08:45:23;;;;;;;17.60;11.67;;;;;;;32.34;100.00;64278.69;5084681;28;20200;-75
2022/07/26 08:47:51;;;;;;;17.67;12.30;;;;;;;32.10;100.00;64247.19;5072060;28;20225;-75
2022/07/26 08:50:19;;;;;;;17.93;12.50;;;;;;;32.71;100.00;64313.31;5071292;28;20231;-77
2022/07/26 08:52:46;;;;;;;13.50;12.13;;;;;;;32.96;100.00;64340.09;5071123;28;20242;-76
2022/07/26 08:55:17;;;;;;;15.87;11.63;;;;;;;33.00;100.00;64345.00;5071909;28;20195;-77
2022/07/26 08:57:44;;;;;;;14.77;11.10;;;;;;;33.15;100.00;64364.06;5071350;28;20333;-77
2022/07/26 09:00:16;;;;;;;18.77;11.47;;;;;;;32.44;100.00;64281.69;5072384;28;20238;-77
2022/07/26 09:02:46;;;;;;;14.17;11.40;;;;;;;32.94;100.00;64338.44;5082219;28;20191;-76
2022/07/26 09:05:13;;;;;;;12.83;10.30;;;;;;;32.21;100.00;64259.22;5085848;28;20203;-78
2022/07/26 09:07:40;;;;;;;17.10;11.57;;;;;;;32.17;100.00;64254.28;5090612;28;20201;-75
2022/07/26 09:10:09;;;;;;;17.43;10.77;;;;;;;33.14;100.00;64359.78;5090348;28;20224;-74
2022/07/26 09:12:37;;;;;;;13.63;10.20;;;;;;;32.38;100.00;64277.78;5091902;28;20203;-77
2022/07/26 09:15:06;;;;;;;14.23;10.87;;;;;;;33.27;100.00;64373.97;5075675;28;20570;-75
2022/07/26 09:17:42;;;;;;;14.60;11.53;;;;;;;33.36;100.00;64383.84;5086701;28;20203;-75
2022/07/26 09:20:14;;;;;;;12.77;10.57;;;;;;;32.65;100.00;64306.19;5092926;28;20255;-74
2022/07/26 09:22:58;;;;;;;13.57;10.70;;;;;;;32.20;100.00;64255.47;5077569;28;20199;-76
2022/07/26 09:25:27;;;;;;;13.13;10.50;;;;;;;32.79;100.00;64322.03;5074886;28;20206;-76
2022/07/26 09:27:58;;;;;;;13.10;10.90;;;;;;;32.09;100.00;64240.28;5081833;28;20320;-74
2022/07/26 09:30:27;;;;;;;15.30;10.47;;;;;;;32.56;100.00;64301.66;5080593;28;20606;-77
2022/07/26 09:33:00;;;;;;;17.70;10.90;;;;;;;31.90;100.00;64225.31;5094212;28;20281;-74
2022/07/26 09:35:30;;;;;;;13.07;10.43;;;;;;;32.85;100.00;64330.69;5078007;28;20202;-75
2022/07/26 09:37:57;;;;;;;19.77;11.60;;;;;;;33.00;100.00;64344.47;5074002;28;20685;-76
2022/07/26 09:40:32;;;;;;;14.27;10.87;;;;;;;33.64;100.00;64414.47;5090639;28;20199;-75
2022/07/26 09:43:01;;;;;;;10.70;9.60;;;;;;;33.07;95.94;64349.47;5094789;28;20206;-76
2022/07/26 09:45:32;;;;;;;10.40;9.40;;;;;;;33.98;96.43;64451.69;5079138;28;20199;-76
2022/07/26 09:48:00;;;;;;;11.30;9.10;;;;;;;34.38;94.65;64494.88;5084635;28;20203;-75
2022/07/26 09:50:30;;;;;;;9.27;8.30;;;;;;;33.98;92.26;64454.31;5092871;28;20226;-75
2022/07/26 09:52:59;;;;;;;12.60;9.37;;;;;;;34.62;89.66;64520.63;5093195;28;20655;-75
2022/07/26 09:55:27;;;;;;;12.00;9.57;;;;;;;34.85;83.34;64545.81;5092778;28;20271;-76
2022/07/26 09:57:55;;;;;;;10.43;9.27;;;;;;;34.36;77.08;64492.16;5092221;28;20255;-77
2022/07/26 10:00:24;;;;;;;10.03;8.83;;;;;;;34.16;79.72;64470.81;5092488;28;20202;-76
2022/07/26 10:02:52;;;;;;;12.13;10.43;;;;;;;35.20;80.76;64584.13;5093039;28;20200;-75
2022/07/26 10:05:20;;;;;;;10.63;9.63;;;;;;;35.47;77.44;64615.81;5093809;28;20211;-74
2022/07/26 10:07:49;;;;;;;13.77;9.40;;;;;;;35.49;81.63;64615.91;5099370;28;20259;-75
2022/07/26 10:10:22;;;;;;;11.70;9.17;;;;;;;34.93;74.04;64549.25;5092339;28;20672;-75
2022/07/26 10:12:50;;;;;;;11.20;9.50;;;;;;;35.79;67.00;64647.66;5093509;28;20668;-75
2022/07/26 10:15:37;;;;;;;9.53;7.90;;;;;;;35.92;57.87;64672.53;5093219;28;20626;-75
2022/07/26 10:18:08;;;;;;;8.93;8.03;;;;;;;35.90;55.00;64659.72;5083432;28;20199;-76
2022/07/26 10:20:41;;;;;;;7.67;6.70;;;;;;;35.44;46.63;64612.50;5076259;28;20231;-74
2022/07/26 10:24:03;;;;;;;8.83;7.70;;;;;;;35.00;51.09;64562.22;5073557;28;20200;-75
2022/07/26 10:26:44;;;;;;;10.83;7.70;;;;;;;35.07;54.35;64572.56;5056828;28;20672;-76
2022/07/26 10:29:28;;;;;;;8.93;8.03;;;;;;;35.44;54.14;64615.16;5093371;28;20234;-75
2022/07/26 10:32:18;;;;;;;11.27;8.83;;;;;;;35.29;56.63;64596.66;5092200;28;20230;-78
2022/07/26 10:34:46;;;;;;;12.37;8.73;;;;;;;34.95;59.53;64556.75;5092559;28;20235;-74
2022/07/26 10:37:23;;;;;;;18.10;9.57;;;;;;;34.63;63.92;64524.38;5079427;28;20229;-76
2022/07/26 10:40:17;;;;;;;14.33;10.33;;;;;;;34.86;64.61;64549.53;5092656;28;20214;-77
2022/07/26 10:42:47;;;;;;;10.73;9.37;;;;;;;34.56;63.57;64516.69;5092541;28;20265;-76
2022/07/26 10:45:19;;;;;;;11.97;10.67;;;;;;;34.35;63.89;64496.34;5072659;28;20209;-76
2022/07/26 10:48:19;;;;;;;12.07;9.73;;;;;;;34.14;67.27;64465.44;5072831;28;20555;-77
2022/07/26 10:50:47;;;;;;;12.37;9.77;;;;;;;34.43;68.17;64500.34;5073397;28;20224;-76
2022/07/26 10:53:19;;;;;;;12.07;10.10;;;;;;;35.07;67.89;64569.91;5073259;28;20198;-75
2022/07/26 10:55:49;;;;;;;15.90;9.80;;;;;;;35.16;63.61;64582.41;5073060;28;20745;-75
2022/07/26 10:58:17;;;;;;;11.43;9.63;;;;;;;35.42;65.14;64608.22;5072763;28;20310;-77
2022/07/26 11:00:59;;;;;;;10.97;9.90;;;;;;;35.99;60.46;64669.59;5077978;28;20203;-76
2022/07/26 11:03:34;;;;;;;12.50;11.20;;;;;;;35.83;59.95;64654.72;5090002;28;20236;-77
2022/07/26 11:06:10;;;;;;;13.00;9.87;;;;;;;36.04;61.36;64677.75;5092375;28;20213;-78
2022/07/26 11:08:36;;;;;;;11.53;9.80;;;;;;;36.50;59.94;64730.28;5078697;28;20677;-75
2022/07/26 11:11:05;;;;;;;17.70;10.07;;;;;;;36.65;56.46;64741.94;5072650;28;20228;-76
2022/07/26 11:13:35;;;;;;;11.83;10.63;;;;;;;36.00;61.31;64673.38;5072468;28;20274;-75
2022/07/26 11:16:05;;;;;;;12.13;10.63;;;;;;;35.76;63.95;64644.41;5072442;28;20203;-75
2022/07/26 11:18:34;;;;;;;16.00;10.07;;;;;;;35.55;62.80;64622.50;5073042;28;20207;-75
2022/07/26 11:21:09;;;;;;;14.27;10.80;;;;;;;35.27;62.20;64597.09;5072637;28;20212;-78